Time;durP1;ratioP1;P1;durP2;ratioP2;P2;SDS_P1;SDS_P2;PMS_P1;PMS_P2;Temp;Humidity;BMP_temperature;BMP_pressure;BME280_temperature;BME280_humidity;BME280_pressure;Samples;Min_cycle;Max_cycle;Signal;HPM_P1;HPM_P2
2022/01/15 00:00:42;;;;;;;124.30;54.50;;;;;;;2.61;100.00;103144.84;6432821;23;20013;-71
2022/01/15 00:03:15;;;;;;;142.90;55.53;;;;;;;2.57;100.00;103146.38;6432547;23;20005;-69
2022/01/15 00:05:46;;;;;;;116.85;53.55;;;;;;;2.61;100.00;103142.28;6433762;23;20082;-67
2022/01/15 00:08:18;;;;;;;147.67;55.07;;;;;;;2.61;100.00;103138.03;6435346;23;20056;-71
2022/01/15 00:10:49;;;;;;;154.93;56.33;;;;;;;2.52;100.00;103134.91;6434493;23;20427;-69
2022/01/15 00:13:26;;;;;;;136.50;57.43;;;;;;;2.51;100.00;103136.63;6432998;23;20015;-74
2022/01/15 00:16:14;;;;;;;125.55;52.42;;;;;;;2.55;100.00;103142.81;6433618;23;20565;-70
2022/01/15 00:19:03;;;;;;;115.95;52.13;;;;;;;2.54;100.00;103143.59;6434641;23;20064;-71
2022/01/15 00:21:35;;;;;;;111.05;50.58;;;;;;;2.51;100.00;103134.03;6434578;23;20089;-70
2022/01/15 00:24:07;;;;;;;123.73;51.90;;;;;;;2.53;100.00;103135.00;6435080;23;20575;-69
2022/01/15 00:26:38;;;;;;;117.97;49.93;;;;;;;2.53;100.00;103123.84;6434915;23;20016;-70
2022/01/15 00:29:09;;;;;;;121.93;50.23;;;;;;;2.54;100.00;103125.59;6435321;23;20431;-67
2022/01/15 00:31:41;;;;;;;126.27;50.67;;;;;;;2.51;100.00;103122.84;6435064;23;20007;-67
2022/01/15 00:34:12;;;;;;;137.07;51.20;;;;;;;2.53;100.00;103124.72;6435023;23;20469;-68
2022/01/15 00:36:43;;;;;;;185.10;53.57;;;;;;;2.48;100.00;103118.41;6435019;23;20011;-68
2022/01/15 00:39:15;;;;;;;114.97;52.47;;;;;;;2.51;100.00;103121.16;6434575;23;20005;-71
2022/01/15 00:41:46;;;;;;;131.60;51.50;;;;;;;2.45;100.00;103119.94;6435111;23;20327;-69
2022/01/15 00:44:18;;;;;;;117.83;47.33;;;;;;;2.37;100.00;103109.19;6434798;23;20081;-68
2022/01/15 00:46:51;;;;;;;126.97;50.50;;;;;;;2.41;100.00;103105.09;6434250;23;20017;-71
2022/01/15 00:49:22;;;;;;;;;;;;;;;2.45;100.00;103107.94;6435107;23;20048;-72
2022/01/15 00:51:53;;;;;;;107.72;44.05;;;;;;;2.36;100.00;103104.81;6434804;23;19912;-70
2022/01/15 00:54:24;;;;;;;184.80;49.33;;;;;;;2.33;100.00;103102.06;6434249;23;20056;-67
2022/01/15 00:56:56;;;;;;;176.53;51.73;;;;;;;2.27;100.00;103097.47;6433595;23;20347;-69
2022/01/15 00:59:27;;;;;;;125.40;47.87;;;;;;;2.30;100.00;103096.72;6434423;23;20075;-69
2022/01/15 01:01:58;;;;;;;155.43;47.30;;;;;;;2.24;100.00;103091.22;6434225;23;20009;-67
2022/01/15 01:04:30;;;;;;;119.47;47.63;;;;;;;2.19;100.00;103086.72;6434201;23;20005;-68
2022/01/15 01:07:02;;;;;;;118.50;47.10;;;;;;;2.26;100.00;103093.09;6406823;23;20067;-68
2022/01/15 01:21:17;;;;;;;119.18;47.08;;;;;;;2.22;100.00;103085.09;6433755;23;20017;-69
2022/01/15 01:23:48;;;;;;;139.50;46.10;;;;;;;2.17;100.00;103075.44;6434617;23;20347;-72
2022/01/15 01:34:29;;;;;;;123.47;46.00;;;;;;;2.19;100.00;103068.69;6353791;23;20014;-67
2022/01/15 01:37:17;;;;;;;132.13;47.05;;;;;;;2.16;100.00;103068.50;6343784;23;20006;-68
2022/01/15 01:39:54;;;;;;;150.05;45.75;;;;;;;2.12;100.00;103069.13;6342353;23;20018;-70
2022/01/15 01:42:37;;;;;;;167.75;48.97;;;;;;;2.10;100.00;103064.69;6343295;23;20003;-68
2022/01/15 01:45:13;;;;;;;134.65;47.13;;;;;;;2.14;100.00;103064.97;6343699;23;20014;-69
2022/01/15 01:47:44;;;;;;;115.75;43.97;;;;;;;2.18;100.00;103060.88;6342857;23;20057;-67
2022/01/15 01:50:24;;;;;;;128.80;45.57;;;;;;;2.16;100.00;103058.22;6344092;23;20006;-68
2022/01/15 01:52:59;;;;;;;112.25;45.00;;;;;;;2.24;100.00;103056.09;6344721;23;20050;-68
2022/01/15 01:55:30;;;;;;;159.13;47.53;;;;;;;2.16;100.00;103049.63;6341773;23;20014;-68
2022/01/15 01:58:03;;;;;;;119.87;44.93;;;;;;;2.20;100.00;103056.72;6343010;23;20424;-70
2022/01/15 02:00:34;;;;;;;140.95;46.38;;;;;;;2.12;100.00;103048.53;6316632;23;20019;-69
2022/01/15 02:03:05;;;;;;;133.93;47.73;;;;;;;2.16;100.00;103050.50;6340213;23;20053;-70
2022/01/15 02:05:39;;;;;;;204.43;52.50;;;;;;;2.10;100.00;103050.13;6339182;23;20025;-70
2022/01/15 02:08:11;;;;;;;114.95;43.10;;;;;;;2.18;100.00;103046.31;6370111;23;20123;-71
2022/01/15 02:10:44;;;;;;;109.80;45.10;;;;;;;2.18;100.00;103037.72;6433989;23;20112;-70
2022/01/15 02:13:15;;;;;;;118.00;43.35;;;;;;;2.15;100.00;103045.28;6434738;23;20068;-70
2022/01/15 02:15:46;;;;;;;121.17;44.50;;;;;;;2.15;100.00;103046.16;6408181;23;20013;-67
2022/01/15 02:18:18;;;;;;;109.50;44.40;;;;;;;2.18;100.00;103038.59;6434539;23;20105;-68
2022/01/15 02:23:44;;;;;;;111.55;40.42;;;;;;;2.07;100.00;103039.66;6445416;23;20016;-68
2022/01/15 02:26:24;;;;;;;94.70;38.22;;;;;;;2.06;100.00;103045.63;6467473;23;20027;-71
2022/01/15 02:29:00;;;;;;;99.18;37.70;;;;;;;1.99;100.00;103048.63;6440024;23;20012;-70
2022/01/15 02:31:34;;;;;;;88.05;35.70;;;;;;;2.00;100.00;103041.00;6466186;23;20000;-69
2022/01/15 02:34:06;;;;;;;92.95;34.95;;;;;;;1.92;100.00;103034.53;6466222;23;20318;-69
2022/01/15 02:36:37;;;;;;;84.23;34.53;;;;;;;1.86;100.00;103023.00;6465831;23;20032;-68
2022/01/15 02:39:09;;;;;;;87.53;35.77;;;;;;;1.80;100.00;103018.34;6464648;23;20035;-67
2022/01/15 02:41:41;;;;;;;90.60;33.77;;;;;;;1.79;100.00;103012.34;6465479;23;20422;-70
2022/01/15 02:44:18;;;;;;;97.88;37.15;;;;;;;1.78;100.00;103007.97;6464869;23;20038;-70
2022/01/15 02:49:20;;;;;;;94.53;34.90;;;;;;;1.81;100.00;102997.00;6476176;23;20434;-69
2022/01/15 02:51:52;;;;;;;83.27;33.27;;;;;;;1.75;100.00;102983.78;6466312;23;20083;-70
2022/01/15 02:54:23;;;;;;;79.67;35.23;;;;;;;1.76;100.00;102972.69;6466103;23;20027;-68
2022/01/15 02:56:55;;;;;;;86.77;36.33;;;;;;;1.79;100.00;102985.75;6465619;23;20079;-67
2022/01/15 02:59:27;;;;;;;93.88;36.20;;;;;;;1.75;100.00;102979.50;6465072;23;20080;-68
2022/01/15 03:01:58;;;;;;;91.23;36.13;;;;;;;1.75;100.00;102982.06;6465103;23;20379;-69
2022/01/15 03:04:29;;;;;;;84.43;34.37;;;;;;;1.72;100.00;102978.44;6465156;23;20045;-67
2022/01/15 03:07:01;;;;;;;68.90;29.87;;;;;;;1.69;100.00;102968.88;6464361;23;20023;-68
2022/01/15 03:09:36;;;;;;;72.67;30.70;;;;;;;1.69;100.00;102967.97;6464690;23;20330;-67
2022/01/15 03:12:08;;;;;;;71.00;29.25;;;;;;;1.68;100.00;102967.09;6465084;23;20302;-68
2022/01/15 03:14:39;;;;;;;73.07;29.13;;;;;;;1.64;100.00;102966.03;6438664;23;20016;-67
2022/01/15 03:17:11;;;;;;;71.37;30.10;;;;;;;1.65;100.00;102961.78;6464996;23;20095;-68
2022/01/15 03:19:42;;;;;;;77.60;29.60;;;;;;;1.60;100.00;102958.94;6464792;23;20005;-67
2022/01/15 03:22:13;;;;;;;65.27;27.23;;;;;;;1.64;100.00;102962.56;6464559;23;20079;-68
2022/01/15 03:24:45;;;;;;;71.27;29.43;;;;;;;1.61;100.00;102954.66;6464134;23;20001;-68
2022/01/15 03:27:17;;;;;;;65.90;28.67;;;;;;;1.63;100.00;102963.38;6464564;23;20009;-67
2022/01/15 03:29:48;;;;;;;73.63;29.10;;;;;;;1.58;100.00;102957.97;6464132;23;20008;-67
2022/01/15 03:32:20;;;;;;;71.63;28.67;;;;;;;1.62;100.00;102959.03;6464823;23;20005;-68
2022/01/15 03:34:52;;;;;;;76.70;30.70;;;;;;;1.57;100.00;102958.75;6464964;23;20005;-67
2022/01/15 03:37:23;;;;;;;70.23;28.77;;;;;;;1.61;100.00;102955.56;6463837;23;20082;-66
2022/01/15 03:39:55;;;;;;;77.40;28.53;;;;;;;1.61;100.00;102954.66;6463973;23;20001;-66
2022/01/15 03:42:26;;;;;;;81.90;33.20;;;;;;;1.58;100.00;102955.38;6463513;23;20106;-67
2022/01/15 03:44:57;;;;;;;80.20;32.73;;;;;;;1.61;100.00;102946.94;6463885;23;20024;-67
2022/01/15 03:47:29;;;;;;;76.57;31.23;;;;;;;1.60;100.00;102951.22;6463850;23;20511;-68
2022/01/15 03:50:01;;;;;;;82.47;29.10;;;;;;;1.59;100.00;102952.00;6464515;23;20307;-67
2022/01/15 03:52:32;;;;;;;67.25;29.35;;;;;;;1.59;100.00;102945.97;6464038;23;20011;-70
2022/01/15 03:55:06;;;;;;;78.10;30.37;;;;;;;1.52;100.00;102937.03;6464029;23;20008;-67
2022/01/15 03:57:39;;;;;;;77.85;28.52;;;;;;;1.52;100.00;102931.88;6463730;23;20012;-68
2022/01/15 04:00:17;;;;;;;84.65;29.92;;;;;;;1.49;100.00;102928.25;6464164;23;20004;-67
2022/01/15 04:02:49;;;;;;;80.18;29.67;;;;;;;1.53;100.00;102930.19;6464188;23;20036;-67
2022/01/15 04:05:21;;;;;;;77.33;29.20;;;;;;;1.51;100.00;102934.38;6463587;23;20123;-67
2022/01/15 04:07:52;;;;;;;82.90;31.33;;;;;;;1.56;100.00;102936.44;6463666;23;20271;-68
2022/01/15 04:10:23;;;;;;;74.63;30.97;;;;;;;1.53;100.00;102931.09;6463776;23;20015;-68
2022/01/15 04:12:55;;;;;;;86.83;32.03;;;;;;;1.55;100.00;102924.38;6464149;23;20406;-67
2022/01/15 04:15:26;;;;;;;84.03;33.60;;;;;;;1.58;100.00;102915.97;6463748;23;20004;-67
2022/01/15 04:17:59;;;;;;;95.10;32.43;;;;;;;1.59;100.00;102917.72;6463607;23;20012;-68
2022/01/15 04:20:30;;;;;;;98.47;35.45;;;;;;;1.57;100.00;102916.75;6463919;23;20066;-67
2022/01/15 04:23:02;;;;;;;82.63;32.67;;;;;;;1.55;100.00;102914.09;6463885;23;20000;-69
2022/01/15 04:25:33;;;;;;;85.17;34.13;;;;;;;1.58;100.00;102910.81;6464066;23;20036;-68
2022/01/15 04:28:09;;;;;;;80.37;31.87;;;;;;;1.59;100.00;102904.84;6464100;23;20068;-66
2022/01/15 04:30:42;;;;;;;74.28;32.25;;;;;;;1.59;100.00;102902.28;6463406;23;20005;-69
2022/01/15 04:33:13;;;;;;;79.55;34.30;;;;;;;1.57;100.00;102907.34;6464339;23;20008;-67
2022/01/15 04:35:45;;;;;;;75.33;34.00;;;;;;;1.60;100.00;102898.94;6465160;23;20007;-68
2022/01/15 04:38:16;;;;;;;82.07;33.83;;;;;;;1.58;100.00;102900.53;6464076;23;20410;-70
2022/01/15 04:40:47;;;;;;;70.53;31.60;;;;;;;1.53;100.00;102896.78;6464423;23;20083;-69
2022/01/15 04:43:19;;;;;;;75.17;31.27;;;;;;;1.57;100.00;102897.06;6464620;23;20094;-69
2022/01/15 04:45:50;;;;;;;80.67;32.03;;;;;;;1.53;100.00;102889.06;6464574;23;20012;-69
2022/01/15 04:48:21;;;;;;;72.70;31.47;;;;;;;1.55;100.00;102893.50;6464187;23;20048;-68
2022/01/15 04:50:53;;;;;;;78.87;32.60;;;;;;;1.54;100.00;102888.28;6464129;23;20009;-69
2022/01/15 04:53:24;;;;;;;83.10;31.60;;;;;;;1.55;100.00;102890.06;6463939;23;20330;-67
2022/01/15 04:55:56;;;;;;;81.43;30.70;;;;;;;1.53;100.00;102882.28;6464152;23;20079;-70
2022/01/15 04:58:27;;;;;;;80.67;32.50;;;;;;;1.53;100.00;102878.78;6464149;23;20458;-68
2022/01/15 05:00:59;;;;;;;80.70;31.70;;;;;;;1.56;100.00;102876.41;6464026;23;20008;-68
2022/01/15 05:03:32;;;;;;;77.60;31.33;;;;;;;1.59;100.00;102881.72;6465797;23;20012;-68
2022/01/15 05:06:04;;;;;;;79.50;30.80;;;;;;;1.54;100.00;102875.44;6466303;23;20329;-71
2022/01/15 05:08:36;;;;;;;76.40;33.23;;;;;;;1.57;100.00;102873.03;6465520;23;20091;-68
2022/01/15 05:11:15;;;;;;;77.07;33.37;;;;;;;1.53;100.00;102878.78;6466062;23;20047;-67
2022/01/15 05:13:46;;;;;;;77.40;31.23;;;;;;;1.48;100.00;102864.78;6465620;23;20007;-67
2022/01/15 05:16:17;;;;;;;66.70;31.33;;;;;;;1.50;100.00;102868.31;6466112;23;20198;-67
2022/01/15 05:18:49;;;;;;;88.17;34.27;;;;;;;1.50;100.00;102864.09;6465653;23;20016;-68
2022/01/15 05:21:20;;;;;;;84.47;35.37;;;;;;;1.51;100.00;102865.84;6465956;23;20004;-69
2022/01/15 05:23:52;;;;;;;69.37;31.37;;;;;;;1.52;100.00;102862.50;6465187;23;20036;-67
2022/01/15 05:26:23;;;;;;;73.90;32.20;;;;;;;1.52;100.00;102859.03;6465614;23;20008;-68
2022/01/15 05:28:55;;;;;;;65.67;31.33;;;;;;;1.49;100.00;102853.72;6465262;23;20012;-67
2022/01/15 05:31:26;;;;;;;69.40;33.43;;;;;;;1.45;100.00;102848.41;6466211;23;20031;-68
2022/01/15 05:33:57;;;;;;;77.20;35.20;;;;;;;1.48;100.00;102849.38;6465955;23;20008;-68
2022/01/15 05:36:29;;;;;;;80.00;33.37;;;;;;;1.44;100.00;102838.03;6466086;23;20076;-71
2022/01/15 05:39:00;;;;;;;69.70;31.67;;;;;;;1.44;100.00;102826.06;6465837;23;20004;-72
2022/01/15 05:41:32;;;;;;;77.67;33.50;;;;;;;1.52;100.00;102826.50;6465738;23;20087;-67
2022/01/15 05:44:04;;;;;;;72.28;33.35;;;;;;;1.52;100.00;102820.50;6465808;23;20011;-68
2022/01/15 05:46:36;;;;;;;72.93;34.33;;;;;;;1.48;100.00;102827.13;6465385;23;20004;-69
2022/01/15 05:49:07;;;;;;;76.40;33.43;;;;;;;1.52;100.00;102829.06;6465129;23;20019;-67
2022/01/15 05:51:38;;;;;;;75.90;33.63;;;;;;;1.55;100.00;102823.25;6465078;23;20066;-67
2022/01/15 05:54:11;;;;;;;70.50;34.83;;;;;;;1.53;100.00;102819.66;6465667;23;20043;-68
2022/01/15 05:56:42;;;;;;;;;;;;;;;1.63;100.00;102816.84;6465903;23;20091;-68
2022/01/15 05:59:14;;;;;;;78.93;33.95;;;;;;;1.59;100.00;102809.75;6465358;23;20322;-68
2022/01/15 06:01:45;;;;;;;83.20;35.20;;;;;;;1.57;100.00;102801.06;6466253;23;20035;-69
2022/01/15 06:04:17;;;;;;;82.47;36.63;;;;;;;1.56;100.00;102799.28;6465745;23;20000;-68
2022/01/15 06:06:49;;;;;;;87.03;35.45;;;;;;;1.55;100.00;102805.25;6465936;23;20016;-67
2022/01/15 06:09:20;;;;;;;76.07;35.70;;;;;;;1.57;100.00;102803.63;6465284;23;20303;-71
2022/01/15 06:11:55;;;;;;;87.60;35.43;;;;;;;1.57;100.00;102804.50;6464993;23;20046;-67
2022/01/15 06:14:26;;;;;;;97.88;35.63;;;;;;;1.54;100.00;102801.75;6464272;23;20009;-69
2022/01/15 06:16:59;;;;;;;91.53;34.77;;;;;;;1.55;100.00;102807.81;6465476;23;20463;-67
2022/01/15 06:19:30;;;;;;;81.95;33.67;;;;;;;1.55;100.00;102808.69;6465375;23;20430;-68
2022/01/15 06:22:02;;;;;;;80.83;34.30;;;;;;;1.55;100.00;102794.97;6465542;23;20009;-69
2022/01/15 06:24:33;;;;;;;77.03;33.20;;;;;;;1.53;100.00;102796.53;6465124;23;20059;-69
2022/01/15 06:27:05;;;;;;;107.53;31.80;;;;;;;1.52;100.00;102793.09;6464953;23;20272;-68
2022/01/15 06:29:36;;;;;;;128.60;33.27;;;;;;;1.45;100.00;102794.44;6437759;23;20027;-68
2022/01/15 06:32:08;;;;;;;100.97;33.60;;;;;;;1.44;100.00;102795.22;6464685;23;20005;-67
2022/01/15 06:34:40;;;;;;;109.30;35.73;;;;;;;1.48;100.00;102792.81;6464381;23;20009;-68
2022/01/15 06:37:11;;;;;;;115.80;34.60;;;;;;;1.50;100.00;102796.34;6465147;23;20019;-68
2022/01/15 06:39:42;;;;;;;130.37;35.50;;;;;;;1.50;100.00;102797.25;6465031;23;20087;-69
2022/01/15 06:42:14;;;;;;;120.43;38.00;;;;;;;1.48;100.00;102792.81;6464624;23;20371;-66
2022/01/15 06:44:45;;;;;;;118.43;36.80;;;;;;;1.47;100.00;102783.38;6465530;23;20024;-70
2022/01/15 06:47:17;;;;;;;98.50;35.33;;;;;;;1.48;100.00;102783.41;6465271;23;20008;-68
2022/01/15 06:49:48;;;;;;;85.10;36.10;;;;;;;1.50;100.00;102786.06;6464627;23;20012;-68
2022/01/15 06:52:21;;;;;;;121.80;36.17;;;;;;;1.51;100.00;102787.84;6464680;23;20042;-67
2022/01/15 06:54:52;;;;;;;116.28;35.95;;;;;;;1.52;100.00;102789.66;6464444;23;20728;-67
2022/01/15 06:57:23;;;;;;;166.83;39.73;;;;;;;1.45;100.00;102781.59;6464489;23;20016;-68
2022/01/15 06:59:55;;;;;;;133.30;39.13;;;;;;;1.47;100.00;102788.50;6464925;23;20019;-68
2022/01/15 07:02:26;;;;;;;119.67;36.07;;;;;;;1.45;100.00;102786.72;6464261;23;20060;-67
2022/01/15 07:04:58;;;;;;;130.73;35.73;;;;;;;1.49;100.00;102789.47;6464732;23;20001;-71
2022/01/15 07:07:29;;;;;;;132.30;35.73;;;;;;;1.47;100.00;102786.81;6464764;23;20066;-68
2022/01/15 07:10:01;;;;;;;140.10;35.03;;;;;;;1.51;100.00;102783.59;6463536;23;20087;-69
2022/01/15 07:12:32;;;;;;;167.07;39.80;;;;;;;1.42;100.00;102788.25;6464478;23;20023;-69
2022/01/15 07:15:04;;;;;;;109.63;34.07;;;;;;;1.49;100.00;102789.47;6464579;23;20079;-71
2022/01/15 07:17:44;;;;;;;102.03;34.07;;;;;;;1.51;100.00;102788.72;6464842;23;20009;-69
2022/01/15 07:20:18;;;;;;;132.27;36.15;;;;;;;1.51;100.00;102793.00;6464595;23;20066;-69
2022/01/15 07:22:50;;;;;;;141.38;32.90;;;;;;;1.50;100.00;102788.66;6464601;23;20027;-70
2022/01/15 07:25:21;;;;;;;81.77;29.97;;;;;;;1.52;100.00;102789.66;6463962;23;20081;-72
2022/01/15 07:27:52;;;;;;;123.30;29.40;;;;;;;1.49;100.00;102782.63;6464220;23;20035;-69
2022/01/15 07:30:24;;;;;;;132.53;30.37;;;;;;;1.39;100.00;102780.34;6464196;23;20009;-70
2022/01/15 07:32:56;;;;;;;141.47;29.67;;;;;;;1.37;100.00;102784.50;6464491;23;20058;-66
2022/01/15 07:35:28;;;;;;;102.97;29.27;;;;;;;1.40;100.00;102785.59;6464084;23;20310;-70
2022/01/15 07:38:00;;;;;;;157.93;30.97;;;;;;;1.35;100.00;102779.25;6462729;23;20008;-67
2022/01/15 07:40:31;;;;;;;88.20;27.33;;;;;;;1.37;100.00;102785.41;6460281;23;20067;-67
2022/01/15 07:43:03;;;;;;;114.63;27.00;;;;;;;1.34;100.00;102776.63;6462613;23;20071;-70
2022/01/15 07:45:35;;;;;;;140.00;26.05;;;;;;;1.31;100.00;102787.63;6458347;23;20018;-68
2022/01/15 07:48:06;;;;;;;137.03;26.33;;;;;;;1.25;100.00;102788.13;6461206;23;20001;-67
2022/01/15 07:50:38;;;;;;;118.17;24.10;;;;;;;1.24;100.00;102788.94;6464368;23;20019;-67
2022/01/15 07:53:09;;;;;;;170.17;25.00;;;;;;;1.18;100.00;102793.72;6464014;23;20032;-67
2022/01/15 07:55:40;;;;;;;236.03;29.30;;;;;;;1.10;100.00;102794.97;6463644;23;20011;-70
2022/01/15 07:58:12;;;;;;;199.83;26.17;;;;;;;1.03;100.00;102796.28;6463515;23;20018;-69
2022/01/15 08:00:43;;;;;;;156.10;24.57;;;;;;;1.02;100.00;102797.09;6463835;23;20500;-67
2022/01/15 08:03:14;;;;;;;109.50;23.70;;;;;;;0.99;100.00;102802.03;6463450;23;20034;-69
2022/01/15 08:05:46;;;;;;;143.03;24.47;;;;;;;0.99;100.00;102796.91;6463582;23;20496;-69
2022/01/15 08:08:17;;;;;;;115.40;23.97;;;;;;;0.91;100.00;102796.44;6462321;23;20399;-70
2022/01/15 08:10:49;;;;;;;107.40;21.60;;;;;;;0.97;100.00;102797.63;6463348;23;20016;-69
2022/01/15 08:13:20;;;;;;;118.87;22.30;;;;;;;0.92;100.00;102794.78;6463074;23;20354;-70
2022/01/15 08:16:01;;;;;;;80.73;21.10;;;;;;;0.89;100.00;102786.91;6464243;23;20001;-70
2022/01/15 08:18:33;;;;;;;84.38;22.30;;;;;;;0.91;100.00;102793.00;6460657;23;20004;-69
2022/01/15 08:21:06;;;;;;;96.33;24.00;;;;;;;0.93;100.00;102793.09;6461776;23;20087;-71
2022/01/15 08:23:38;;;;;;;78.88;23.40;;;;;;;0.92;100.00;102789.66;6463754;23;20004;-68
2022/01/15 08:26:10;;;;;;;76.47;24.38;;;;;;;0.99;100.00;102784.06;6463783;23;20059;-68
2022/01/15 08:28:41;;;;;;;87.28;22.63;;;;;;;0.95;100.00;102778.66;6435831;23;20094;-68
2022/01/15 08:31:12;;;;;;;90.03;23.43;;;;;;;0.99;100.00;102786.63;6461766;23;20001;-74
2022/01/15 08:33:44;;;;;;;85.67;23.00;;;;;;;0.95;100.00;102779.56;6462623;23;20008;-69
2022/01/15 08:36:17;;;;;;;120.00;27.50;;;;;;;0.92;100.00;102774.25;6464186;23;20063;-67
2022/01/15 08:38:49;;;;;;;75.90;24.23;;;;;;;0.96;100.00;102772.72;6465989;23;20009;-67
2022/01/15 08:41:20;;;;;;;89.10;24.47;;;;;;;0.94;100.00;102780.34;6466216;23;20310;-67
2022/01/15 08:43:51;;;;;;;92.97;27.00;;;;;;;0.97;100.00;102779.66;6466137;23;20401;-66
2022/01/15 08:46:23;;;;;;;95.70;27.50;;;;;;;1.02;100.00;102775.66;6466146;23;20064;-69
2022/01/15 08:48:54;;;;;;;126.87;28.40;;;;;;;0.90;100.00;102774.16;6467133;23;20012;-70
2022/01/15 08:51:26;;;;;;;88.77;27.23;;;;;;;0.89;100.00;102776.63;6466155;23;20004;-69
2022/01/15 08:53:57;;;;;;;77.03;26.90;;;;;;;0.88;100.00;102773.16;6466545;23;20035;-68
2022/01/15 08:56:29;;;;;;;74.60;28.80;;;;;;;0.89;100.00;102772.38;6465747;23;20015;-67
2022/01/15 08:59:03;;;;;;;79.27;27.93;;;;;;;0.89;100.00;102774.06;6465422;23;20009;-73
2022/01/15 09:01:35;;;;;;;56.13;27.33;;;;;;;0.93;100.00;102781.13;6464870;23;20103;-68
2022/01/15 09:04:06;;;;;;;63.63;26.87;;;;;;;0.91;100.00;102778.47;6466637;23;20005;-70
2022/01/15 09:06:40;;;;;;;68.77;29.00;;;;;;;0.88;100.00;102778.28;6439465;23;20005;-78
2022/01/15 09:09:12;;;;;;;53.90;26.52;;;;;;;0.93;100.00;102773.41;6465052;23;20712;-71
2022/01/15 09:11:44;;;;;;;53.17;26.93;;;;;;;0.94;100.00;102770.06;6463970;23;20016;-68
2022/01/15 09:14:16;;;;;;;61.30;27.50;;;;;;;0.94;100.00;102775.22;6465414;23;20009;-75
2022/01/15 09:16:47;;;;;;;59.97;29.17;;;;;;;0.99;100.00;102767.78;6464531;23;20020;-70
2022/01/15 09:19:21;;;;;;;61.37;28.40;;;;;;;0.96;100.00;102763.34;6465817;23;20020;-72
2022/01/15 09:21:53;;;;;;;53.10;28.35;;;;;;;0.99;100.00;102760.06;6437892;23;20036;-68
2022/01/15 09:24:24;;;;;;;59.90;27.47;;;;;;;0.95;100.00;102758.09;6465693;23;20027;-70
2022/01/15 09:32:19;;;;;;;78.97;28.38;;;;;;;1.10;100.00;102756.44;6464540;23;20013;-70
2022/01/15 09:34:51;;;;;;;62.87;29.77;;;;;;;1.11;100.00;102750.47;6437565;23;20008;-69
2022/01/15 09:37:22;;;;;;;82.03;30.27;;;;;;;1.14;100.00;102752.34;6464940;23;20338;-68
2022/01/15 09:39:53;;;;;;;93.80;29.60;;;;;;;1.15;100.00;102751.56;6465799;23;20008;-73
2022/01/15 09:42:25;;;;;;;85.67;30.63;;;;;;;1.15;100.00;102743.88;6467045;23;20008;-71
2022/01/15 09:44:58;;;;;;;85.10;30.40;;;;;;;1.09;100.00;102736.69;6466671;23;20011;-72
2022/01/15 09:47:32;;;;;;;64.55;31.42;;;;;;;1.24;100.00;102737.56;6466532;23;20023;-71
2022/01/15 09:50:11;;;;;;;74.55;30.30;;;;;;;1.21;100.00;102744.22;6466344;23;20038;-69
2022/01/15 09:52:42;;;;;;;69.10;30.00;;;;;;;1.19;100.00;102749.28;6466240;23;20031;-69
2022/01/15 09:55:15;;;;;;;64.97;30.23;;;;;;;1.23;100.00;102745.19;6466901;23;20009;-67
2022/01/15 09:57:46;;;;;;;69.78;31.83;;;;;;;1.25;100.00;102756.44;6436219;23;20319;-69
2022/01/15 10:00:19;;;;;;;76.63;28.93;;;;;;;1.26;100.00;102747.94;6466061;23;20013;-67
2022/01/15 10:02:52;;;;;;;62.22;30.38;;;;;;;1.30;100.00;102749.84;6465476;23;20399;-66
2022/01/15 10:05:25;;;;;;;59.08;31.80;;;;;;;1.41;100.00;102743.66;6465861;23;20051;-69
2022/01/15 10:07:58;;;;;;;;;;;;;;;1.57;100.00;102745.38;6465743;23;20035;-68
2022/01/15 10:10:32;;;;;;;71.53;31.33;;;;;;;1.47;100.00;102739.66;6466053;23;19942;-66
2022/01/15 10:13:18;;;;;;;69.97;30.85;;;;;;;1.52;100.00;102753.66;6465424;23;20004;-67
2022/01/15 10:16:10;;;;;;;60.30;31.08;;;;;;;1.59;100.00;102745.47;6440116;23;20012;-71
2022/01/15 10:18:44;;;;;;;62.95;33.33;;;;;;;1.55;100.00;102748.69;6463892;23;20019;-69
2022/01/15 10:21:17;;;;;;;61.22;32.78;;;;;;;1.62;100.00;102750.78;6465840;23;20373;-70
2022/01/15 10:23:50;;;;;;;;;;;;;;;1.75;100.00;102747.22;6466658;23;20116;-68
2022/01/15 10:26:23;;;;;;;92.32;35.05;;;;;;;1.63;100.00;102742.28;6438722;23;19908;-69
2022/01/15 10:28:58;;;;;;;64.38;33.03;;;;;;;1.66;100.00;102739.88;6464134;23;20008;-70
2022/01/15 10:31:40;;;;;;;91.40;32.42;;;;;;;1.68;100.00;102735.72;6465968;23;20019;-68
2022/01/15 10:34:30;;;;;;;67.18;32.25;;;;;;;1.67;100.00;102733.06;6463487;23;20410;-70
2022/01/15 10:37:08;;;;;;;65.03;32.75;;;;;;;1.63;100.00;102735.44;6467894;23;20067;-68
2022/01/15 10:40:06;;;;;;;78.47;34.10;;;;;;;1.65;100.00;102730.41;6465876;23;20311;-68
2022/01/15 10:42:38;;;;;;;62.65;34.05;;;;;;;1.62;100.00;102722.50;6464274;23;20066;-70
2022/01/15 10:45:12;;;;;;;79.20;35.87;;;;;;;1.59;100.00;102720.66;6463016;23;20001;-68
2022/01/15 10:51:47;;;;;;;78.80;35.97;;;;;;;1.72;100.00;102729.03;6439691;22;20525;-67
2022/01/15 10:54:19;;;;;;;76.35;34.95;;;;;;;1.67;100.00;102733.06;6437557;23;20300;-68
2022/01/15 10:57:07;;;;;;;102.97;39.95;;;;;;;1.71;100.00;102724.72;6438156;23;20013;-67
2022/01/15 10:59:38;;;;;;;78.25;32.70;;;;;;;1.65;100.00;102730.41;6464438;23;20075;-67
2022/01/15 11:02:19;;;;;;;85.90;30.33;;;;;;;1.64;100.00;102719.25;6466950;23;20009;-67
2022/01/15 11:04:51;;;;;;;72.20;32.00;;;;;;;1.68;100.00;102704.84;6467315;23;20036;-67
2022/01/15 11:07:22;;;;;;;73.17;31.17;;;;;;;1.65;100.00;102720.13;6467100;23;20028;-67
2022/01/15 11:09:54;;;;;;;91.03;34.27;;;;;;;1.73;100.00;102713.69;6467372;23;20008;-67
2022/01/15 11:12:30;;;;;;;93.90;32.73;;;;;;;1.71;100.00;102705.03;6441908;23;20394;-69
2022/01/15 11:15:01;;;;;;;71.25;32.38;;;;;;;1.71;100.00;102705.03;6468658;23;20008;-68
2022/01/15 11:17:34;;;;;;;63.70;31.47;;;;;;;1.76;100.00;102695.88;6439693;23;20005;-69
2022/01/15 11:20:06;;;;;;;95.05;33.78;;;;;;;1.75;100.00;102698.34;6467267;23;20020;-72
2022/01/15 11:22:39;;;;;;;69.38;32.42;;;;;;;1.80;100.00;102697.81;6465550;23;20016;-69
2022/01/15 11:25:13;;;;;;;77.95;31.60;;;;;;;1.84;100.00;102698.00;6464651;23;20008;-68
2022/01/15 11:27:45;;;;;;;63.20;33.42;;;;;;;1.88;100.00;102694.75;6464997;23;20040;-69
2022/01/15 11:30:18;;;;;;;60.17;33.03;;;;;;;1.88;100.00;102694.75;6464234;23;20445;-67
2022/01/15 11:32:50;;;;;;;60.45;31.33;;;;;;;1.98;100.00;102692.78;6463181;23;20012;-67
2022/01/15 11:35:36;;;;;;;64.53;32.90;;;;;;;2.05;100.00;102691.41;6462665;23;20013;-67
2022/01/15 11:38:07;;;;;;;61.88;31.20;;;;;;;1.97;100.00;102688.41;6464062;23;20356;-68
2022/01/15 11:40:46;;;;;;;51.43;31.03;;;;;;;2.07;100.00;102683.78;6463479;23;20009;-67
2022/01/15 11:43:24;;;;;;;54.92;30.85;;;;;;;2.06;100.00;102676.84;6463426;23;20394;-69
2022/01/15 11:45:57;;;;;;;51.28;29.17;;;;;;;1.99;100.00;102676.50;6463491;23;20008;-67
2022/01/15 11:48:33;;;;;;;51.35;28.42;;;;;;;1.99;100.00;102673.94;6463061;23;20422;-71
2022/01/15 11:51:13;;;;;;;48.83;26.50;;;;;;;2.05;100.00;102670.81;6463117;23;20015;-67
2022/01/15 11:53:59;;;;;;;47.67;26.55;;;;;;;2.03;100.00;102668.97;6463413;23;20362;-66
2022/01/15 11:56:39;;;;;;;50.38;29.00;;;;;;;2.18;100.00;102655.22;6462792;23;20008;-68
2022/01/15 11:59:26;;;;;;;48.42;28.35;;;;;;;2.28;100.00;102658.25;6463301;23;20005;-68
2022/01/15 12:02:00;;;;;;;45.78;27.38;;;;;;;2.21;100.00;102656.16;6463644;23;20382;-67
2022/01/15 12:04:40;;;;;;;47.72;27.67;;;;;;;2.31;100.00;102655.84;6463273;23;20004;-67
2022/01/15 12:07:12;;;;;;;52.65;28.67;;;;;;;2.21;100.00;102654.50;6463812;23;20020;-68